Time;durP1;ratioP1;P1;durP2;ratioP2;P2;SDS_P1;SDS_P2;PMS_P1;PMS_P2;Temp;Humidity;BMP_temperature;BMP_pressure;BME280_temperature;BME280_humidity;BME280_pressure;Samples;Min_cycle;Max_cycle;Signal;HPM_P1;HPM_P2
2021/03/13 00:00:20;;;;;;;2.50;1.20;;;;;;;;;;5017613;28;20128;-76
2021/03/13 00:02:45;;;;;;;2.37;1.00;;;;;;;;;;5017442;28;20129;-77
2021/03/13 00:05:39;;;;;;;2.03;1.07;;;;;;;;;;5033291;28;20043;-76
2021/03/13 00:08:04;;;;;;;2.08;0.90;;;;;;;;;;5013116;28;20481;-76
2021/03/13 00:10:30;;;;;;;3.23;1.00;;;;;;;;;;4997872;28;20034;-76
2021/03/13 00:12:55;;;;;;;2.87;1.10;;;;;;;;;;4997805;28;20033;-76
2021/03/13 00:15:21;;;;;;;3.07;1.13;;;;;;;;;;5015019;28;20029;-76
2021/03/13 00:17:47;;;;;;;2.53;1.10;;;;;;;;;;5032014;28;20137;-76
2021/03/13 00:20:14;;;;;;;;;;;;;;;;;;4997634;28;20129;-76
2021/03/13 00:22:39;;;;;;;2.08;0.88;;;;;;;;;;5013372;28;19913;-76
2021/03/13 00:25:05;;;;;;;2.47;1.20;;;;;;;;;;5014186;28;20467;-76
2021/03/13 00:27:31;;;;;;;1.85;0.90;;;;;;;;;;5023764;28;20041;-76
2021/03/13 00:29:56;;;;;;;2.20;1.00;;;;;;;;;;4996828;28;20037;-75
2021/03/13 00:32:21;;;;;;;2.27;1.00;;;;;;;;;;5013151;28;20441;-76
2021/03/13 00:34:47;;;;;;;2.43;1.00;;;;;;;;;;5032804;22;20076;-77
2021/03/13 00:37:12;;;;;;;1.67;0.80;;;;;;;;;;4989270;28;20116;-77
2021/03/13 00:39:38;;;;;;;2.67;1.13;;;;;;;;;;4983207;28;20045;-77
2021/03/13 00:42:03;;;;;;;2.20;1.00;;;;;;;;;;4994996;28;20057;-77
2021/03/13 00:44:29;;;;;;;1.67;0.90;;;;;;;;;;4980484;28;20496;-77
2021/03/13 00:46:54;;;;;;;2.30;1.03;;;;;;;;;;4971517;28;20128;-77
2021/03/13 00:49:19;;;;;;;1.63;0.80;;;;;;;;;;5019577;28;20422;-77
2021/03/13 00:51:45;;;;;;;1.73;1.00;;;;;;;;;;5019301;28;20136;-77
2021/03/13 00:54:10;;;;;;;1.83;1.00;;;;;;;;;;5006402;28;20112;-77
2021/03/13 00:56:35;;;;;;;2.03;0.90;;;;;;;;;;4984036;28;20041;-77
2021/03/13 00:59:01;;;;;;;3.53;0.97;;;;;;;;;;5003692;28;20100;-77
2021/03/13 01:01:26;;;;;;;2.20;1.03;;;;;;;;;;5002893;28;20044;-77
2021/03/13 01:03:51;;;;;;;2.33;1.00;;;;;;;;;;5009119;28;20061;-77
2021/03/13 01:06:17;;;;;;;2.50;1.00;;;;;;;;;;4999865;28;20488;-77
2021/03/13 01:08:42;;;;;;;1.43;0.83;;;;;;;;;;5007861;28;20460;-77
2021/03/13 01:11:08;;;;;;;1.63;0.90;;;;;;;;;;5019287;28;20175;-76
2021/03/13 01:13:33;;;;;;;2.23;0.90;;;;;;;;;;5018899;28;20032;-77
2021/03/13 01:15:58;;;;;;;1.93;0.87;;;;;;;;;;5018989;28;20037;-77
2021/03/13 01:18:24;;;;;;;1.93;0.80;;;;;;;;;;5017550;28;20464;-77
2021/03/13 01:20:49;;;;;;;1.70;0.77;;;;;;;;;;5019006;28;20037;-77
2021/03/13 01:23:15;;;;;;;1.85;0.90;;;;;;;;;;5002824;28;20040;-77
2021/03/13 01:25:40;;;;;;;2.17;0.90;;;;;;;;;;5018873;28;20120;-77
2021/03/13 01:28:05;;;;;;;2.03;0.90;;;;;;;;;;5002372;28;20493;-77
2021/03/13 01:30:31;;;;;;;1.83;0.83;;;;;;;;;;4982943;28;20128;-77
2021/03/13 01:32:56;;;;;;;2.00;0.97;;;;;;;;;;4999313;28;20040;-77
2021/03/13 01:35:22;;;;;;;2.27;1.00;;;;;;;;;;4999082;28;20458;-77
2021/03/13 01:37:47;;;;;;;1.93;0.90;;;;;;;;;;4996032;28;20116;-77
2021/03/13 01:40:16;;;;;;;1.53;0.73;;;;;;;;;;5018673;28;20049;-77
2021/03/13 01:42:45;;;;;;;2.20;1.00;;;;;;;;;;4987948;28;20049;-77
2021/03/13 01:45:11;;;;;;;1.88;0.80;;;;;;;;;;4983366;28;20029;-77
2021/03/13 01:47:36;;;;;;;1.50;0.87;;;;;;;;;;4982779;28;20088;-77
2021/03/13 01:50:03;;;;;;;2.40;0.90;;;;;;;;;;4987307;28;20041;-77
2021/03/13 01:52:28;;;;;;;1.73;0.80;;;;;;;;;;5002007;28;20120;-77
2021/03/13 01:54:54;;;;;;;2.87;0.80;;;;;;;;;;5008918;28;20123;-77
2021/03/13 01:57:19;;;;;;;2.03;0.90;;;;;;;;;;5013596;28;20120;-77
2021/03/13 01:59:45;;;;;;;1.77;0.90;;;;;;;;;;5005348;28;20620;-77
2021/03/13 02:02:11;;;;;;;1.80;0.70;;;;;;;;;;4999213;28;20033;-77
2021/03/13 02:04:37;;;;;;;2.17;0.90;;;;;;;;;;5008654;28;20041;-77
2021/03/13 02:07:08;;;;;;;2.15;0.80;;;;;;;;;;5008753;28;20040;-77
2021/03/13 02:10:06;;;;;;;1.67;0.80;;;;;;;;;;5024661;28;20048;-77
2021/03/13 02:12:38;;;;;;;1.73;0.77;;;;;;;;;;5027329;28;20041;-77
2021/03/13 02:15:08;;;;;;;1.90;0.88;;;;;;;;;;5041378;28;20067;-77
2021/03/13 02:17:56;;;;;;;2.70;0.95;;;;;;;;;;5008216;28;20025;-77
2021/03/13 02:21:01;;;;;;;2.00;0.82;;;;;;;;;;5040751;28;20395;-77
2021/03/13 02:23:26;;;;;;;1.95;0.82;;;;;;;;;;5027409;28;20033;-77
2021/03/13 02:26:34;;;;;;;1.43;0.90;;;;;;;;;;5024907;28;20044;-77
2021/03/13 02:29:33;;;;;;;1.60;0.70;;;;;;;;;;5006639;28;20125;-77
2021/03/13 02:32:01;;;;;;;1.67;0.70;;;;;;;;;;5036285;28;20089;-77
2021/03/13 02:34:28;;;;;;;2.17;0.80;;;;;;;;;;5008720;28;20041;-77
2021/03/13 02:36:54;;;;;;;2.20;0.70;;;;;;;;;;5003478;28;20026;-77
2021/03/13 02:39:20;;;;;;;2.23;1.00;;;;;;;;;;5005130;28;20079;-77
2021/03/13 02:41:47;;;;;;;1.55;0.70;;;;;;;;;;4998781;28;20280;-77
2021/03/13 02:44:14;;;;;;;1.65;0.73;;;;;;;;;;5008669;28;20040;-77
2021/03/13 02:46:42;;;;;;;2.20;0.80;;;;;;;;;;5008566;28;20402;-77
2021/03/13 02:49:08;;;;;;;1.52;0.70;;;;;;;;;;5008507;28;20087;-77
2021/03/13 02:51:33;;;;;;;1.40;0.77;;;;;;;;;;4999250;28;20033;-77
2021/03/13 02:53:59;;;;;;;1.50;0.80;;;;;;;;;;5005065;28;20466;-77
2021/03/13 02:56:24;;;;;;;1.53;0.77;;;;;;;;;;5021372;28;20168;-77
2021/03/13 02:58:51;;;;;;;1.53;0.80;;;;;;;;;;5023667;28;20039;-77
2021/03/13 03:01:16;;;;;;;1.45;0.75;;;;;;;;;;4999131;28;20037;-77
2021/03/13 03:03:42;;;;;;;2.27;0.80;;;;;;;;;;5001867;28;20036;-77
2021/03/13 03:06:07;;;;;;;1.83;0.80;;;;;;;;;;4989726;28;20033;-77
2021/03/13 03:08:33;;;;;;;1.27;0.70;;;;;;;;;;4985528;28;20033;-77
2021/03/13 03:10:59;;;;;;;2.60;0.80;;;;;;;;;;5001650;28;20116;-77
2021/03/13 03:13:25;;;;;;;3.37;0.90;;;;;;;;;;5001889;28;20112;-77
2021/03/13 03:15:51;;;;;;;2.70;0.77;;;;;;;;;;5013528;28;20476;-77
2021/03/13 03:18:17;;;;;;;1.53;0.57;;;;;;;;;;5020713;28;20099;-77
2021/03/13 03:20:43;;;;;;;2.03;0.90;;;;;;;;;;5004886;28;20033;-77
2021/03/13 03:23:08;;;;;;;3.05;0.80;;;;;;;;;;5004930;28;20068;-77
2021/03/13 03:25:34;;;;;;;1.43;0.60;;;;;;;;;;5011382;28;20132;-77
2021/03/13 03:27:59;;;;;;;1.70;0.70;;;;;;;;;;4985634;28;20121;-77
2021/03/13 03:30:26;;;;;;;2.83;0.90;;;;;;;;;;4986011;28;20120;-77
2021/03/13 03:32:52;;;;;;;1.60;0.70;;;;;;;;;;4998385;28;20040;-77
2021/03/13 03:35:18;;;;;;;1.27;0.70;;;;;;;;;;5014211;28;20090;-77
2021/03/13 03:37:43;;;;;;;1.95;0.90;;;;;;;;;;4996048;28;20500;-77
2021/03/13 03:40:09;;;;;;;1.40;0.63;;;;;;;;;;5021184;28;20045;-77
2021/03/13 03:42:38;;;;;;;2.17;0.70;;;;;;;;;;5005857;28;20037;-77
2021/03/13 03:45:04;;;;;;;2.40;0.85;;;;;;;;;;5001199;28;20046;-78
2021/03/13 03:47:32;;;;;;;1.95;0.80;;;;;;;;;;4986335;28;20037;-78
2021/03/13 03:49:58;;;;;;;2.65;0.80;;;;;;;;;;4986669;28;20499;-78
2021/03/13 03:52:26;;;;;;;2.33;0.77;;;;;;;;;;4988697;28;20131;-78
2021/03/13 03:54:52;;;;;;;1.58;0.73;;;;;;;;;;5003199;28;20048;-77
2021/03/13 03:57:17;;;;;;;2.23;0.80;;;;;;;;;;5002549;28;20029;-78
2021/03/13 03:59:43;;;;;;;1.17;0.60;;;;;;;;;;5002603;28;20124;-78
2021/03/13 04:02:08;;;;;;;1.77;0.70;;;;;;;;;;5002080;28;20059;-77
2021/03/13 04:04:33;;;;;;;1.30;0.70;;;;;;;;;;5001800;28;20057;-77
2021/03/13 04:06:59;;;;;;;1.43;0.70;;;;;;;;;;5001515;28;20117;-77
2021/03/13 04:09:25;;;;;;;1.50;0.70;;;;;;;;;;4985541;28;20560;-77
2021/03/13 04:11:51;;;;;;;1.67;0.70;;;;;;;;;;5001309;28;20526;-77
2021/03/13 04:14:16;;;;;;;1.60;0.63;;;;;;;;;;5005033;28;20068;-77
2021/03/13 04:16:41;;;;;;;2.03;0.77;;;;;;;;;;5003957;28;20107;-78
2021/03/13 04:19:07;;;;;;;1.47;0.70;;;;;;;;;;4989181;28;20078;-77
2021/03/13 04:21:32;;;;;;;1.73;0.70;;;;;;;;;;5005168;28;20127;-77
2021/03/13 04:23:58;;;;;;;1.53;0.70;;;;;;;;;;5004682;28;20196;-77
2021/03/13 04:26:23;;;;;;;1.67;0.80;;;;;;;;;;4989968;28;20480;-77
2021/03/13 04:28:49;;;;;;;1.40;0.70;;;;;;;;;;5001574;28;20112;-77
2021/03/13 04:31:20;;;;;;;2.33;0.60;;;;;;;;;;5010538;28;20132;-77
2021/03/13 04:33:45;;;;;;;1.35;0.63;;;;;;;;;;4994055;28;20048;-77
2021/03/13 04:36:10;;;;;;;2.67;0.80;;;;;;;;;;5013172;28;20407;-77
2021/03/13 04:38:36;;;;;;;1.03;0.60;;;;;;;;;;5020625;28;20115;-78
2021/03/13 04:41:01;;;;;;;1.13;0.57;;;;;;;;;;5013764;28;20048;-78
2021/03/13 04:43:26;;;;;;;1.60;0.73;;;;;;;;;;5011700;28;20120;-77
2021/03/13 04:45:56;;;;;;;1.93;0.70;;;;;;;;;;5010378;28;20548;-77
2021/03/13 04:48:22;;;;;;;1.33;0.65;;;;;;;;;;4984371;28;20030;-77
2021/03/13 04:50:47;;;;;;;1.27;0.60;;;;;;;;;;5001778;28;20070;-78
2021/03/13 04:53:12;;;;;;;2.20;0.70;;;;;;;;;;5000470;28;20124;-78
2021/03/13 04:55:38;;;;;;;1.03;0.60;;;;;;;;;;5007907;28;20128;-78
2021/03/13 04:58:03;;;;;;;1.67;0.60;;;;;;;;;;5019577;28;20464;-78
2021/03/13 05:00:28;;;;;;;1.57;0.60;;;;;;;;;;5020001;28;20033;-78
2021/03/13 05:02:54;;;;;;;1.40;0.70;;;;;;;;;;5019863;28;20039;-78
2021/03/13 05:05:19;;;;;;;1.70;0.67;;;;;;;;;;5007503;28;20575;-78
2021/03/13 05:07:44;;;;;;;1.30;0.50;;;;;;;;;;5019918;28;20137;-78
2021/03/13 05:10:10;;;;;;;1.40;0.60;;;;;;;;;;5026901;28;20100;-78
2021/03/13 05:12:35;;;;;;;1.10;0.53;;;;;;;;;;5002121;28;20044;-78
2021/03/13 05:15:04;;;;;;;1.43;0.60;;;;;;;;;;5001337;28;20029;-78
2021/03/13 05:17:30;;;;;;;1.60;0.70;;;;;;;;;;5000534;28;20041;-78
2021/03/13 05:19:55;;;;;;;1.30;0.70;;;;;;;;;;4984709;28;20044;-78
2021/03/13 05:22:20;;;;;;;1.27;0.60;;;;;;;;;;5000221;28;20120;-78
2021/03/13 05:24:46;;;;;;;1.20;0.50;;;;;;;;;;4984091;28;20040;-78
2021/03/13 05:27:11;;;;;;;1.30;0.50;;;;;;;;;;4983428;28;20121;-78
2021/03/13 05:29:37;;;;;;;1.00;0.50;;;;;;;;;;5015678;28;20534;-78
2021/03/13 05:32:02;;;;;;;1.43;0.70;;;;;;;;;;5019448;28;20060;-78
2021/03/13 05:34:27;;;;;;;0.80;0.47;;;;;;;;;;5016835;28;20322;-78
2021/03/13 05:36:53;;;;;;;1.03;0.50;;;;;;;;;;4983465;28;20559;-78
2021/03/13 05:39:18;;;;;;;1.77;0.60;;;;;;;;;;4983461;28;20116;-78
2021/03/13 05:41:44;;;;;;;1.47;0.67;;;;;;;;;;4999648;28;20060;-78
2021/03/13 05:44:09;;;;;;;1.73;0.53;;;;;;;;;;5012476;28;20044;-78
2021/03/13 05:46:36;;;;;;;1.60;0.60;;;;;;;;;;4984000;28;20033;-78
2021/03/13 05:49:05;;;;;;;0.70;0.40;;;;;;;;;;4983583;28;20029;-78
2021/03/13 05:51:34;;;;;;;1.25;0.60;;;;;;;;;;4983071;28;20129;-78
2021/03/13 05:53:59;;;;;;;0.80;0.55;;;;;;;;;;4999747;28;20461;-78
2021/03/13 05:56:27;;;;;;;1.30;0.60;;;;;;;;;;4979342;28;20172;-78
2021/03/13 05:58:52;;;;;;;1.55;0.70;;;;;;;;;;5005829;28;20038;-78
2021/03/13 06:01:17;;;;;;;1.07;0.50;;;;;;;;;;4999247;28;20502;-78
2021/03/13 06:03:43;;;;;;;1.23;0.60;;;;;;;;;;4999664;28;20120;-78
2021/03/13 06:06:09;;;;;;;1.33;0.55;;;;;;;;;;5013232;28;20466;-78
2021/03/13 06:08:34;;;;;;;1.00;0.53;;;;;;;;;;5002650;28;20025;-78
2021/03/13 06:11:00;;;;;;;0.70;0.43;;;;;;;;;;5002617;28;20043;-78
2021/03/13 06:13:25;;;;;;;1.17;0.60;;;;;;;;;;5002188;28;20479;-77
2021/03/13 06:15:51;;;;;;;1.53;0.50;;;;;;;;;;5007457;28;20029;-77
2021/03/13 06:18:16;;;;;;;1.50;0.73;;;;;;;;;;4984225;28;20037;-77
2021/03/13 06:20:42;;;;;;;1.13;0.50;;;;;;;;;;4999239;28;20116;-77
2021/03/13 06:23:07;;;;;;;1.47;0.60;;;;;;;;;;4999314;28;20072;-77
2021/03/13 06:25:32;;;;;;;1.50;0.77;;;;;;;;;;5023180;28;20029;-77
2021/03/13 06:28:14;;;;;;;1.20;0.60;;;;;;;;;;5009014;28;20025;-77
2021/03/13 06:30:42;;;;;;;1.25;0.60;;;;;;;;;;5015476;28;20500;-77
2021/03/13 06:33:20;;;;;;;0.90;0.47;;;;;;;;;;5018416;28;20037;-77
2021/03/13 06:35:45;;;;;;;1.63;0.68;;;;;;;;;;5041619;22;20515;-77
2021/03/13 06:38:16;;;;;;;1.07;0.57;;;;;;;;;;4984196;28;20136;-77
2021/03/13 06:40:41;;;;;;;1.58;0.70;;;;;;;;;;5006215;28;20404;-77
2021/03/13 06:43:30;;;;;;;1.37;0.57;;;;;;;;;;5035255;28;20037;-77
2021/03/13 06:46:05;;;;;;;1.05;0.57;;;;;;;;;;5003581;28;20499;-77
2021/03/13 06:48:51;;;;;;;1.02;0.50;;;;;;;;;;5030741;28;20092;-77
2021/03/13 06:51:32;;;;;;;1.08;0.50;;;;;;;;;;5017852;28;20099;-77
2021/03/13 06:54:09;;;;;;;1.85;0.70;;;;;;;;;;5018466;28;20034;-77
2021/03/13 06:56:37;;;;;;;1.55;0.60;;;;;;;;;;5051722;28;20048;-77
2021/03/13 06:59:02;;;;;;;1.55;0.60;;;;;;;;;;5021658;28;20028;-77
2021/03/13 07:01:29;;;;;;;1.07;0.43;;;;;;;;;;5020070;28;20399;-77
2021/03/13 07:03:55;;;;;;;;;;;;;;;;;;5018636;28;20479;-76
2021/03/13 07:06:20;;;;;;;1.15;0.43;;;;;;;;;;5016056;28;19941;-77
2021/03/13 07:08:49;;;;;;;0.90;0.40;;;;;;;;;;5006722;28;20086;-77
2021/03/13 07:11:16;;;;;;;1.02;0.50;;;;;;;;;;5001296;28;20048;-77
2021/03/13 07:13:43;;;;;;;0.85;0.60;;;;;;;;;;5001582;28;20040;-77
2021/03/13 07:16:22;;;;;;;1.48;0.40;;;;;;;;;;5017788;28;20057;-76
2021/03/13 07:18:47;;;;;;;1.50;0.60;;;;;;;;;;5036182;28;20504;-77
2021/03/13 07:21:14;;;;;;;0.80;0.50;;;;;;;;;;5028845;28;20035;-77
2021/03/13 07:23:42;;;;;;;0.70;0.47;;;;;;;;;;5037888;28;20036;-77
2021/03/13 07:26:09;;;;;;;1.13;0.43;;;;;;;;;;5033505;28;20021;-77
2021/03/13 07:28:34;;;;;;;1.83;0.60;;;;;;;;;;5017805;28;20030;-76
2021/03/13 07:30:59;;;;;;;1.17;0.30;;;;;;;;;;5004532;28;20458;-77
2021/03/13 07:33:25;;;;;;;1.23;0.40;;;;;;;;;;5020866;28;20087;-77
2021/03/13 07:35:51;;;;;;;1.03;0.50;;;;;;;;;;5021595;28;20116;-77
2021/03/13 07:38:17;;;;;;;1.08;0.52;;;;;;;;;;5015214;28;20492;-77
2021/03/13 07:40:43;;;;;;;0.98;0.50;;;;;;;;;;5005576;28;20583;-77
2021/03/13 07:43:10;;;;;;;1.90;0.47;;;;;;;;;;5018033;28;20042;-77
2021/03/13 07:45:36;;;;;;;0.85;0.40;;;;;;;;;;5018838;28;20434;-77
2021/03/13 07:48:01;;;;;;;1.30;0.50;;;;;;;;;;5016832;28;20088;-76
2021/03/13 07:50:26;;;;;;;1.50;0.50;;;;;;;;;;5013453;28;20132;-77
2021/03/13 07:52:52;;;;;;;0.93;0.50;;;;;;;;;;5020033;28;20124;-76
2021/03/13 07:55:17;;;;;;;1.00;0.37;;;;;;;;;;5008378;28;20136;-77
2021/03/13 07:57:47;;;;;;;0.80;0.50;;;;;;;;;;5000748;28;20083;-77
2021/03/13 08:00:13;;;;;;;1.20;0.47;;;;;;;;;;5000711;28;20137;-77
2021/03/13 08:02:40;;;;;;;1.00;0.40;;;;;;;;;;5019082;28;20120;-77
2021/03/13 08:05:08;;;;;;;1.05;0.50;;;;;;;;;;5036711;28;20136;-76
2021/03/13 08:07:59;;;;;;;0.85;0.40;;;;;;;;;;5034936;28;20037;-77
2021/03/13 08:10:47;;;;;;;1.02;0.45;;;;;;;;;;5035042;28;20041;-77
2021/03/13 08:13:27;;;;;;;0.90;0.50;;;;;;;;;;5019877;28;20037;-77
2021/03/13 08:16:09;;;;;;;0.88;0.35;;;;;;;;;;5038611;28;20038;-77
2021/03/13 08:18:37;;;;;;;0.95;0.38;;;;;;;;;;5025678;28;20083;-77
2021/03/13 08:21:22;;;;;;;1.23;0.40;;;;;;;;;;5016674;28;20126;-77
2021/03/13 08:24:00;;;;;;;0.85;0.50;;;;;;;;;;5044674;28;20154;-76
2021/03/13 08:26:35;;;;;;;0.55;0.30;;;;;;;;;;5037308;28;20055;-78
2021/03/13 08:29:07;;;;;;;1.77;0.70;;;;;;;;;;5055627;28;20086;-78
2021/03/13 08:31:59;;;;;;;2.80;1.00;;;;;;;;;;5024195;28;20033;-78
2021/03/13 08:34:38;;;;;;;2.47;1.10;;;;;;;;;;5040772;28;20045;-78
2021/03/13 08:37:19;;;;;;;3.67;1.05;;;;;;;;;;5039960;28;20125;-78
2021/03/13 08:39:45;;;;;;;3.45;1.40;;;;;;;;;;5047839;28;20040;-80
2021/03/13 08:42:10;;;;;;;3.60;1.23;;;;;;;;;;5020400;28;20377;-77
2021/03/13 08:44:36;;;;;;;2.80;1.20;;;;;;;;;;5002742;28;20124;-77
2021/03/13 08:47:03;;;;;;;3.17;1.30;;;;;;;;;;5023830;28;20056;-78
2021/03/13 08:49:29;;;;;;;3.30;1.15;;;;;;;;;;5041782;28;20041;-78
2021/03/13 08:52:07;;;;;;;2.30;1.10;;;;;;;;;;5025711;28;20515;-78
2021/03/13 08:54:44;;;;;;;1.35;0.70;;;;;;;;;;5048087;28;20065;-77
2021/03/13 08:57:13;;;;;;;2.05;0.80;;;;;;;;;;5040338;28;20061;-78
2021/03/13 08:59:39;;;;;;;1.50;0.70;;;;;;;;;;5038783;28;20040;-78
2021/03/13 09:02:34;;;;;;;4.07;0.77;;;;;;;;;;5025004;28;20044;-78
2021/03/13 09:05:25;;;;;;;2.15;0.63;;;;;;;;;;5037413;28;20512;-78
2021/03/13 09:07:57;;;;;;;1.60;0.73;;;;;;;;;;5058828;28;20036;-78
2021/03/13 09:10:36;;;;;;;1.42;0.60;;;;;;;;;;5018729;28;20424;-78
2021/03/13 09:13:01;;;;;;;1.15;0.60;;;;;;;;;;5008253;28;20119;-77
2021/03/13 09:15:26;;;;;;;1.27;0.50;;;;;;;;;;5004894;28;20468;-78
2021/03/13 09:17:52;;;;;;;1.70;0.63;;;;;;;;;;4986984;28;20488;-78
2021/03/13 09:20:18;;;;;;;1.83;0.70;;;;;;;;;;5011104;28;20448;-77
2021/03/13 09:22:44;;;;;;;3.90;0.90;;;;;;;;;;5021434;28;20509;-78
2021/03/13 09:25:13;;;;;;;1.50;0.70;;;;;;;;;;5037974;28;20029;-78
2021/03/13 09:27:38;;;;;;;3.35;0.80;;;;;;;;;;5035742;28;20028;-77
2021/03/13 09:30:17;;;;;;;1.53;0.77;;;;;;;;;;5036120;28;20059;-77
2021/03/13 09:32:47;;;;;;;17.80;2.28;;;;;;;;;;5000446;28;20033;-77
2021/03/13 09:35:13;;;;;;;13.38;2.17;;;;;;;;;;5001159;28;20404;-78
2021/03/13 09:37:38;;;;;;;36.63;3.45;;;;;;;;;;5019507;28;20408;-78
2021/03/13 09:40:17;;;;;;;12.67;1.70;;;;;;;;;;5019723;28;20041;-76
2021/03/13 09:42:43;;;;;;;9.38;1.20;;;;;;;;;;5035069;28;20017;-76
2021/03/13 09:45:13;;;;;;;6.85;1.30;;;;;;;;;;5035238;28;20127;-77
2021/03/13 09:47:48;;;;;;;5.28;1.13;;;;;;;;;;5035049;28;20021;-77
2021/03/13 09:50:16;;;;;;;4.43;0.98;;;;;;;;;;5035063;28;20045;-77
2021/03/13 09:52:43;;;;;;;4.90;1.02;;;;;;;;;;5035550;28;20037;-77
2021/03/13 09:55:10;;;;;;;5.25;0.88;;;;;;;;;;5033175;28;20040;-77
2021/03/13 09:57:37;;;;;;;4.05;0.70;;;;;;;;;;5020752;28;20029;-78
2021/03/13 10:00:10;;;;;;;3.40;0.85;;;;;;;;;;5029608;28;20060;-77
2021/03/13 10:02:36;;;;;;;7.32;0.98;;;;;;;;;;4999472;28;20037;-78
2021/03/13 10:05:01;;;;;;;2.20;0.73;;;;;;;;;;4985132;28;20047;-77
2021/03/13 10:07:28;;;;;;;2.40;0.87;;;;;;;;;;5035536;28;20055;-78
2021/03/13 10:10:00;;;;;;;3.08;1.13;;;;;;;;;;5036541;28;20075;-77
2021/03/13 10:12:33;;;;;;;5.30;0.93;;;;;;;;;;5023151;28;20132;-78
2021/03/13 10:15:14;;;;;;;3.00;1.00;;;;;;;;;;5004988;28;20033;-75
2021/03/13 10:17:56;;;;;;;1.65;0.80;;;;;;;;;;5056308;28;20112;-75
2021/03/13 10:20:26;;;;;;;5.70;0.85;;;;;;;;;;5022524;28;20037;-76
2021/03/13 10:22:52;;;;;;;3.28;0.82;;;;;;;;;;5006021;28;20041;-76
2021/03/13 10:25:20;;;;;;;3.70;0.80;;;;;;;;;;5011462;28;20044;-80
2021/03/13 10:27:45;;;;;;;10.93;1.55;;;;;;;;;;5026326;28;20082;-77
2021/03/13 10:30:11;;;;;;;11.23;1.20;;;;;;;;;;5044848;28;20036;-76
2021/03/13 10:32:37;;;;;;;28.17;3.20;;;;;;;;;;5023587;28;20406;-79
2021/03/13 10:35:07;;;;;;;40.60;4.35;;;;;;;;;;5021386;28;20037;-76
2021/03/13 10:37:36;;;;;;;21.83;2.95;;;;;;;;;;5035894;28;20044;-76
2021/03/13 10:40:03;;;;;;;18.90;3.08;;;;;;;;;;5045075;28;20076;-80
2021/03/13 10:42:33;;;;;;;141.30;18.50;;;;;;;;;;5013187;28;20064;-76
2021/03/13 10:45:16;;;;;;;52.97;8.85;;;;;;;;;;5048519;28;20080;-79
2021/03/13 10:47:43;;;;;;;34.15;5.35;;;;;;;;;;5023029;28;20123;-78
2021/03/13 10:50:09;;;;;;;30.98;4.20;;;;;;;;;;5029891;28;20094;-76
2021/03/13 10:52:40;;;;;;;22.40;3.93;;;;;;;;;;5010770;28;20053;-77
2021/03/13 10:55:06;;;;;;;14.63;3.00;;;;;;;;;;5012069;28;20560;-81
2021/03/13 10:57:31;;;;;;;15.03;2.57;;;;;;;;;;5024795;28;20121;-82
2021/03/13 10:59:57;;;;;;;14.70;2.90;;;;;;;;;;5027806;28;20033;-82
2021/03/13 11:02:22;;;;;;;11.00;2.33;;;;;;;;;;5025639;28;20056;-82
2021/03/13 11:04:47;;;;;;;16.13;2.70;;;;;;;;;;5036588;28;20037;-81
2021/03/13 11:07:25;;;;;;;12.17;2.83;;;;;;;;;;5018902;28;20060;-81
2021/03/13 11:09:51;;;;;;;8.32;2.47;;;;;;;;;;5068112;28;20041;-82
2021/03/13 11:12:17;;;;;;;10.85;2.13;;;;;;;;;;5055794;28;20073;-82
2021/03/13 11:14:42;;;;;;;8.63;1.87;;;;;;;;;;5043709;28;20121;-81
2021/03/13 11:17:08;;;;;;;13.87;2.13;;;;;;;;;;5058671;28;20055;-81
2021/03/13 11:19:34;;;;;;;11.52;2.13;;;;;;;;;;5037928;28;20045;-81
2021/03/13 11:21:59;;;;;;;8.10;1.63;;;;;;;;;;5049678;28;20025;-81
2021/03/13 11:24:26;;;;;;;13.17;1.90;;;;;;;;;;5053063;28;20299;-81
2021/03/13 11:26:51;;;;;;;12.32;2.08;;;;;;;;;;5054355;28;20024;-81
2021/03/13 11:29:17;;;;;;;8.17;2.03;;;;;;;;;;5052437;28;20381;-81
2021/03/13 11:31:43;;;;;;;9.07;1.70;;;;;;;;;;5046125;28;20101;-82
2021/03/13 11:34:08;;;;;;;8.03;1.83;;;;;;;;;;5053238;28;20056;-81
2021/03/13 11:36:34;;;;;;;8.77;1.53;;;;;;;;;;5038341;28;20056;-81
2021/03/13 11:38:59;;;;;;;7.70;1.87;;;;;;;;;;5018279;28;20044;-81
2021/03/13 11:41:24;;;;;;;6.40;1.60;;;;;;;;;;5050014;28;20077;-82
2021/03/13 11:43:50;;;;;;;9.77;1.80;;;;;;;;;;5035651;28;20056;-82
2021/03/13 11:46:15;;;;;;;5.43;1.70;;;;;;;;;;5010126;28;20449;-81
2021/03/13 11:48:41;;;;;;;9.60;2.00;;;;;;;;;;5033341;28;20472;-81
2021/03/13 11:51:13;;;;;;;7.30;1.70;;;;;;;;;;5046733;28;20121;-81
2021/03/13 11:53:40;;;;;;;6.38;1.63;;;;;;;;;;5001527;28;20384;-80
2021/03/13 11:56:06;;;;;;;8.73;1.70;;;;;;;;;;5040351;28;20377;-80
2021/03/13 11:58:31;;;;;;;9.33;2.17;;;;;;;;;;5047706;28;20304;-81
2021/03/13 12:00:56;;;;;;;7.83;2.23;;;;;;;;;;5049294;28;20040;-81
2021/03/13 12:03:22;;;;;;;7.77;1.90;;;;;;;;;;5048110;28;20037;-82
2021/03/13 12:05:47;;;;;;;13.83;2.33;;;;;;;;;;5013566;28;20029;-81
2021/03/13 12:08:13;;;;;;;10.37;2.20;;;;;;;;;;5046610;28;20034;-79
2021/03/13 12:10:38;;;;;;;9.17;2.07;;;;;;;;;;5028687;28;20080;-79
2021/03/13 12:13:04;;;;;;;10.97;2.10;;;;;;;;;;5027866;28;20498;-80
2021/03/13 12:15:29;;;;;;;9.40;1.80;;;;;;;;;;5026091;28;20113;-79
2021/03/13 12:17:54;;;;;;;9.20;1.77;;;;;;;;;;5026676;28;20067;-82
2021/03/13 12:20:20;;;;;;;9.10;1.90;;;;;;;;;;5030772;28;20109;-80
2021/03/13 12:22:45;;;;;;;8.07;1.73;;;;;;;;;;5046200;28;20037;-81
2021/03/13 12:25:10;;;;;;;10.27;2.00;;;;;;;;;;5029180;28;20044;-82
2021/03/13 12:27:39;;;;;;;5.23;1.53;;;;;;;;;;5006660;28;20076;-80
2021/03/13 12:30:11;;;;;;;8.10;2.08;;;;;;;;;;5024074;28;20100;-81
2021/03/13 12:32:37;;;;;;;6.50;1.70;;;;;;;;;;5039549;28;20033;-78
2021/03/13 12:35:03;;;;;;;7.00;1.50;;;;;;;;;;5022095;28;20087;-81
2021/03/13 12:37:29;;;;;;;9.25;2.03;;;;;;;;;;5024926;28;20099;-81
2021/03/13 12:39:54;;;;;;;7.03;1.90;;;;;;;;;;5008619;28;20459;-81
2021/03/13 12:42:20;;;;;;;6.77;1.80;;;;;;;;;;5007109;28;20060;-83
2021/03/13 12:44:45;;;;;;;8.57;2.10;;;;;;;;;;5007009;28;20069;-80
2021/03/13 12:47:11;;;;;;;6.63;1.73;;;;;;;;;;5006733;28;20064;-80
2021/03/13 12:49:36;;;;;;;7.13;1.80;;;;;;;;;;5022106;28;20400;-78
2021/03/13 12:52:01;;;;;;;8.03;2.07;;;;;;;;;;5038736;28;20033;-82
2021/03/13 12:54:27;;;;;;;16.43;2.80;;;;;;;;;;5005059;28;20470;-80
2021/03/13 12:56:52;;;;;;;13.23;2.30;;;;;;;;;;5021752;28;20037;-84
2021/03/13 12:59:19;;;;;;;12.27;2.00;;;;;;;;;;5005759;28;20044;-79
2021/03/13 13:01:44;;;;;;;;;;;;;;;;;;5041365;28;20044;-78
2021/03/13 13:04:10;;;;;;;14.63;2.87;;;;;;;;;;5037518;28;19913;-79
2021/03/13 13:06:35;;;;;;;18.05;2.67;;;;;;;;;;5004125;28;20291;-77
2021/03/13 13:09:01;;;;;;;20.07;3.40;;;;;;;;;;5037088;28;20041;-80
2021/03/13 13:11:26;;;;;;;16.17;3.37;;;;;;;;;;5001075;28;20044;-76
2021/03/13 13:13:52;;;;;;;20.47;3.57;;;;;;;;;;5035665;28;20025;-77
2021/03/13 13:16:17;;;;;;;36.08;4.07;;;;;;;;;;5019379;28;20032;-79
2021/03/13 13:18:43;;;;;;;22.20;3.80;;;;;;;;;;4999918;28;20504;-77
2021/03/13 13:21:09;;;;;;;14.47;2.90;;;;;;;;;;5018794;28;20060;-76
2021/03/13 13:23:34;;;;;;;22.87;3.97;;;;;;;;;;5018892;28;20104;-78
2021/03/13 13:25:59;;;;;;;18.20;3.13;;;;;;;;;;5017451;28;20068;-78
2021/03/13 13:28:26;;;;;;;12.40;2.90;;;;;;;;;;5007090;28;20048;-78
2021/03/13 13:30:51;;;;;;;;;;;;;;;;;;5041354;28;20037;-79
2021/03/13 13:33:17;;;;;;;9.80;2.40;;;;;;;;;;5040232;28;19913;-79
2021/03/13 13:35:42;;;;;;;9.20;2.50;;;;;;;;;;5022016;28;20034;-77
2021/03/13 13:38:12;;;;;;;10.60;2.37;;;;;;;;;;5007245;28;20033;-78
2021/03/13 13:40:37;;;;;;;8.55;2.17;;;;;;;;;;5009496;28;20112;-80
2021/03/13 13:43:03;;;;;;;10.23;2.37;;;;;;;;;;5028258;28;20048;-80
2021/03/13 13:45:28;;;;;;;11.73;2.83;;;;;;;;;;5024996;28;20109;-78
2021/03/13 13:47:53;;;;;;;10.73;2.30;;;;;;;;;;5061805;23;20053;-77
2021/03/13 13:50:19;;;;;;;10.23;2.87;;;;;;;;;;5039881;28;20051;-79
2021/03/13 13:52:45;;;;;;;9.13;2.60;;;;;;;;;;5039661;28;20086;-79
2021/03/13 13:55:11;;;;;;;11.17;2.93;;;;;;;;;;5055701;28;20467;-77
2021/03/13 13:57:40;;;;;;;10.07;2.80;;;;;;;;;;5037886;28;20444;-80
2021/03/13 14:00:10;;;;;;;8.15;2.40;;;;;;;;;;5019928;28;20480;-79
2021/03/13 14:02:36;;;;;;;10.52;2.80;;;;;;;;;;5036198;28;20045;-79
2021/03/13 14:05:01;;;;;;;6.97;2.70;;;;;;;;;;5020298;28;20044;-78
2021/03/13 14:07:27;;;;;;;13.53;2.90;;;;;;;;;;5038370;28;20097;-78
2021/03/13 14:09:55;;;;;;;10.13;2.87;;;;;;;;;;5025261;28;20111;-82
2021/03/13 14:12:20;;;;;;;14.40;3.10;;;;;;;;;;5055953;28;20039;-80
2021/03/13 14:14:46;;;;;;;13.63;2.70;;;;;;;;;;5038621;28;20111;-81
2021/03/13 14:17:11;;;;;;;8.37;3.00;;;;;;;;;;5027715;28;20033;-82
2021/03/13 14:19:36;;;;;;;10.27;2.70;;;;;;;;;;5021340;28;20039;-81
2021/03/13 14:22:02;;;;;;;11.67;2.60;;;;;;;;;;5055871;28;20032;-79
2021/03/13 14:24:27;;;;;;;12.27;2.77;;;;;;;;;;5030222;28;20090;-79
2021/03/13 14:26:53;;;;;;;11.03;2.70;;;;;;;;;;5041234;28;20127;-79
2021/03/13 14:29:21;;;;;;;11.33;2.70;;;;;;;;;;5056844;28;20566;-83
2021/03/13 14:31:49;;;;;;;10.20;2.63;;;;;;;;;;5026291;28;20033;-80
2021/03/13 14:34:15;;;;;;;8.23;2.50;;;;;;;;;;5047705;28;20075;-79
2021/03/13 14:36:41;;;;;;;9.07;2.60;;;;;;;;;;5019774;28;20025;-80
2021/03/13 14:39:12;;;;;;;;;;;;;;;;;;5035976;28;20407;-81
2021/03/13 14:41:38;;;;;;;8.20;2.58;;;;;;;;;;5047239;28;19912;-77
2021/03/13 14:44:03;;;;;;;9.47;2.87;;;;;;;;;;5038706;28;20098;-87
2021/03/13 14:46:28;;;;;;;9.23;2.60;;;;;;;;;;5019329;28;20438;-81